KPUB

Pueblo Memorial Airport

Pueblo, Colorado, USA
METAR KPUB 232253Z 11008KT 10SM CLR 08/M15 A3022 RMK AO2 SLP246 T00781150
Observed Flight Rules
Jan-23 @ 22:53 UTC (28 minutes ago) Visual Flight Rules
Wind Visibility Clouds
110° at 8 knots 10 miles
  • Clear skies
Temperatures Readings
Current 8°C / 46°F
Dewpoint -15°C / 5°F
Humidity 18%
Altimeter 30.22" Hg
Pressure 1024.6 hPa
Elevation 1420
METAR KPUB 232253Z 11008KT 10SM CLR 08/M15 A3022 RMK AO2 SLP246 T00781150
Observed Flight Rules
Jan-23 @ 22:53 UTC
(28 minutes ago)
VFR
Wind Visibility
110° at 8 knots 10 miles
Clouds
  • Clear skies
Temperature Dewpoint
8°C / 46°F -15°C / 5°F
Humidity Altimeter Pressure
18% 30.22" Hg 1024.6 hPa